sensor_id;sensor_type;location;lat;lon;timestamp;temperature;humidity
71304;DHT22;59091;47.446;19.148;2023-08-06T00:01:26;23.66;77.69
71304;DHT22;59091;47.446;19.148;2023-08-06T00:03:51;23.64;77.80
71304;DHT22;59091;47.446;19.148;2023-08-06T00:06:17;23.63;77.73
71304;DHT22;59091;47.446;19.148;2023-08-06T00:08:42;23.62;77.78
71304;DHT22;59091;47.446;19.148;2023-08-06T00:11:08;23.63;77.87
71304;DHT22;59091;47.446;19.148;2023-08-06T00:13:33;23.57;77.98
71304;DHT22;59091;47.446;19.148;2023-08-06T00:16:12;23.63;77.62
71304;DHT22;59091;47.446;19.148;2023-08-06T00:18:38;23.60;77.79
71304;DHT22;59091;47.446;19.148;2023-08-06T00:21:04;23.60;77.63
71304;DHT22;59091;47.446;19.148;2023-08-06T00:23:29;23.57;77.72
71304;DHT22;59091;47.446;19.148;2023-08-06T00:25:55;23.57;77.60
71304;DHT22;59091;47.446;19.148;2023-08-06T00:28:20;23.54;77.52
71304;DHT22;59091;47.446;19.148;2023-08-06T00:30:46;23.53;77.52
71304;DHT22;59091;47.446;19.148;2023-08-06T00:33:11;23.53;77.57
71304;DHT22;59091;47.446;19.148;2023-08-06T00:35:36;23.41;77.68
71304;DHT22;59091;47.446;19.148;2023-08-06T00:38:02;23.20;78.25
71304;DHT22;59091;47.446;19.148;2023-08-06T00:40:27;23.16;78.63
71304;DHT22;59091;47.446;19.148;2023-08-06T00:42:55;23.19;78.84
71304;DHT22;59091;47.446;19.148;2023-08-06T00:45:21;23.19;78.66
71304;DHT22;59091;47.446;19.148;2023-08-06T00:47:47;23.19;78.58
71304;DHT22;59091;47.446;19.148;2023-08-06T00:50:13;23.23;78.54
71304;DHT22;59091;47.446;19.148;2023-08-06T00:52:38;23.26;78.53
71304;DHT22;59091;47.446;19.148;2023-08-06T00:55:05;23.23;78.33
71304;DHT22;59091;47.446;19.148;2023-08-06T00:57:31;23.24;78.47
71304;DHT22;59091;47.446;19.148;2023-08-06T00:59:57;23.24;78.39
71304;DHT22;59091;47.446;19.148;2023-08-06T01:02:23;23.18;78.47
71304;DHT22;59091;47.446;19.148;2023-08-06T01:04:48;23.15;78.73
71304;DHT22;59091;47.446;19.148;2023-08-06T01:15:25;23.16;78.65
71304;DHT22;59091;47.446;19.148;2023-08-06T01:17:53;23.15;78.77
71304;DHT22;59091;47.446;19.148;2023-08-06T01:20:18;23.18;78.68
71304;DHT22;59091;47.446;19.148;2023-08-06T01:22:44;23.22;78.47
71304;DHT22;59091;47.446;19.148;2023-08-06T01:25:09;23.27;78.21
71304;DHT22;59091;47.446;19.148;2023-08-06T01:27:47;23.27;78.04
71304;DHT22;59091;47.446;19.148;2023-08-06T01:30:16;23.29;77.96
71304;DHT22;59091;47.446;19.148;2023-08-06T01:32:44;23.29;77.74
71304;DHT22;59091;47.446;19.148;2023-08-06T01:35:14;23.36;77.81
71304;DHT22;59091;47.446;19.148;2023-08-06T01:37:41;23.36;77.82
71304;DHT22;59091;47.446;19.148;2023-08-06T01:40:10;23.33;77.83
71304;DHT22;59091;47.446;19.148;2023-08-06T01:42:37;23.34;77.73
71304;DHT22;59091;47.446;19.148;2023-08-06T01:45:02;23.34;77.68
71304;DHT22;59091;47.446;19.148;2023-08-06T01:47:28;23.33;77.70
71304;DHT22;59091;47.446;19.148;2023-08-06T01:49:53;23.27;77.82
71304;DHT22;59091;47.446;19.148;2023-08-06T01:52:19;23.24;77.92
71304;DHT22;59091;47.446;19.148;2023-08-06T01:54:44;23.22;78.04
71304;DHT22;59091;47.446;19.148;2023-08-06T01:57:10;23.22;77.97
71304;DHT22;59091;47.446;19.148;2023-08-06T01:59:35;23.15;78.23
71304;DHT22;59091;47.446;19.148;2023-08-06T02:02:00;23.11;78.10
71304;DHT22;59091;47.446;19.148;2023-08-06T02:04:26;23.01;78.01
71304;DHT22;59091;47.446;19.148;2023-08-06T02:06:51;23.05;78.27
71304;DHT22;59091;47.446;19.148;2023-08-06T02:09:17;23.05;78.38
71304;DHT22;59091;47.446;19.148;2023-08-06T02:11:42;23.06;78.49
71304;DHT22;59091;47.446;19.148;2023-08-06T02:14:07;23.03;78.45
71304;DHT22;59091;47.446;19.148;2023-08-06T02:16:33;22.99;78.57
71304;DHT22;59091;47.446;19.148;2023-08-06T02:18:58;23.03;78.51
71304;DHT22;59091;47.446;19.148;2023-08-06T02:21:24;23.05;78.24
71304;DHT22;59091;47.446;19.148;2023-08-06T02:23:49;23.08;78.33
71304;DHT22;59091;47.446;19.148;2023-08-06T02:26:14;22.98;78.24
71304;DHT22;59091;47.446;19.148;2023-08-06T02:28:40;22.98;78.38
71304;DHT22;59091;47.446;19.148;2023-08-06T02:31:06;22.96;78.39
71304;DHT22;59091;47.446;19.148;2023-08-06T02:33:32;22.98;78.52
71304;DHT22;59091;47.446;19.148;2023-08-06T02:36:03;22.99;78.38
71304;DHT22;59091;47.446;19.148;2023-08-06T02:38:30;22.98;78.41
71304;DHT22;59091;47.446;19.148;2023-08-06T02:40:56;23.01;78.45
71304;DHT22;59091;47.446;19.148;2023-08-06T02:43:21;23.03;78.45
71304;DHT22;59091;47.446;19.148;2023-08-06T02:45:47;23.08;78.31
71304;DHT22;59091;47.446;19.148;2023-08-06T02:48:12;23.11;78.20
71304;DHT22;59091;47.446;19.148;2023-08-06T02:50:39;23.15;78.01
71304;DHT22;59091;47.446;19.148;2023-08-06T02:53:06;23.08;77.92
71304;DHT22;59091;47.446;19.148;2023-08-06T02:55:32;22.99;77.89
71304;DHT22;59091;47.446;19.148;2023-08-06T02:57:57;22.98;78.22
71304;DHT22;59091;47.446;19.148;2023-08-06T03:00:23;22.98;78.15
71304;DHT22;59091;47.446;19.148;2023-08-06T03:02:48;22.98;78.28
71304;DHT22;59091;47.446;19.148;2023-08-06T03:05:13;23.01;78.16
71304;DHT22;59091;47.446;19.148;2023-08-06T03:07:39;22.99;78.18
71304;DHT22;59091;47.446;19.148;2023-08-06T03:10:05;23.06;77.96
71304;DHT22;59091;47.446;19.148;2023-08-06T03:12:30;23.08;77.84
71304;DHT22;59091;47.446;19.148;2023-08-06T03:14:55;23.09;77.61
71304;DHT22;59091;47.446;19.148;2023-08-06T03:17:21;23.01;77.46
71304;DHT22;59091;47.446;19.148;2023-08-06T03:19:46;23.03;77.57
71304;DHT22;59091;47.446;19.148;2023-08-06T03:22:12;23.01;77.53
71304;DHT22;59091;47.446;19.148;2023-08-06T03:24:37;22.96;77.75
71304;DHT22;59091;47.446;19.148;2023-08-06T03:27:03;23.01;77.85
71304;DHT22;59091;47.446;19.148;2023-08-06T03:29:28;22.87;77.47
71304;DHT22;59091;47.446;19.148;2023-08-06T03:31:53;22.85;77.84
71304;DHT22;59091;47.446;19.148;2023-08-06T03:34:19;22.84;77.97
71304;DHT22;59091;47.446;19.148;2023-08-06T03:36:44;22.88;77.76
71304;DHT22;59091;47.446;19.148;2023-08-06T03:39:10;22.88;77.49
71304;DHT22;59091;47.446;19.148;2023-08-06T03:41:35;22.82;77.16
71304;DHT22;59091;47.446;19.148;2023-08-06T03:44:01;22.68;77.34
71304;DHT22;59091;47.446;19.148;2023-08-06T03:46:29;22.68;77.69
71304;DHT22;59091;47.446;19.148;2023-08-06T03:48:54;22.69;77.45
71304;DHT22;59091;47.446;19.148;2023-08-06T03:51:20;22.48;77.69
71304;DHT22;59091;47.446;19.148;2023-08-06T03:53:45;22.50;78.25
71304;DHT22;59091;47.446;19.148;2023-08-06T03:56:10;22.55;78.32
71304;DHT22;59091;47.446;19.148;2023-08-06T03:58:36;22.55;77.90
71304;DHT22;59091;47.446;19.148;2023-08-06T04:01:02;22.47;78.01
71304;DHT22;59091;47.446;19.148;2023-08-06T04:03:28;22.44;77.74
71304;DHT22;59091;47.446;19.148;2023-08-06T04:05:54;22.39;78.30
71304;DHT22;59091;47.446;19.148;2023-08-06T04:08:19;22.47;78.29
71304;DHT22;59091;47.446;19.148;2023-08-06T04:10:45;22.29;77.77
71304;DHT22;59091;47.446;19.148;2023-08-06T04:13:10;22.20;78.18
71304;DHT22;59091;47.446;19.148;2023-08-06T04:15:36;22.25;78.54
71304;DHT22;59091;47.446;19.148;2023-08-06T04:18:01;22.21;77.82
71304;DHT22;59091;47.446;19.148;2023-08-06T04:20:26;22.25;77.97
71304;DHT22;59091;47.446;19.148;2023-08-06T04:22:54;22.34;78.44
71304;DHT22;59091;47.446;19.148;2023-08-06T04:25:20;22.44;78.28
71304;DHT22;59091;47.446;19.148;2023-08-06T04:27:49;22.60;77.58
71304;DHT22;59091;47.446;19.148;2023-08-06T04:30:15;22.60;77.03
71304;DHT22;59091;47.446;19.148;2023-08-06T04:32:40;22.27;76.60
71304;DHT22;59091;47.446;19.148;2023-08-06T04:35:06;22.24;77.25
71304;DHT22;59091;47.446;19.148;2023-08-06T04:37:32;22.24;77.71
71304;DHT22;59091;47.446;19.148;2023-08-06T04:39:57;22.14;77.37
71304;DHT22;59091;47.446;19.148;2023-08-06T04:42:22;21.97;77.42
71304;DHT22;59091;47.446;19.148;2023-08-06T04:44:48;21.52;77.48
71304;DHT22;59091;47.446;19.148;2023-08-06T04:47:13;21.48;78.88
71304;DHT22;59091;47.446;19.148;2023-08-06T04:49:39;21.39;78.80
71304;DHT22;59091;47.446;19.148;2023-08-06T04:52:05;21.42;79.38
71304;DHT22;59091;47.446;19.148;2023-08-06T04:54:31;21.51;79.01
71304;DHT22;59091;47.446;19.148;2023-08-06T04:56:56;21.52;78.57
71304;DHT22;59091;47.446;19.148;2023-08-06T04:59:22;21.56;78.97
71304;DHT22;59091;47.446;19.148;2023-08-06T05:01:47;21.58;78.78
71304;DHT22;59091;47.446;19.148;2023-08-06T05:04:13;21.63;79.09
71304;DHT22;59091;47.446;19.148;2023-08-06T05:06:38;21.61;78.08
71304;DHT22;59091;47.446;19.148;2023-08-06T05:09:04;21.66;78.77
71304;DHT22;59091;47.446;19.148;2023-08-06T05:11:30;21.73;78.90
71304;DHT22;59091;47.446;19.148;2023-08-06T05:13:55;21.76;78.28
71304;DHT22;59091;47.446;19.148;2023-08-06T05:16:21;21.72;77.43
71304;DHT22;59091;47.446;19.148;2023-08-06T05:18:46;21.70;77.76
71304;DHT22;59091;47.446;19.148;2023-08-06T05:21:11;21.73;77.68
71304;DHT22;59091;47.446;19.148;2023-08-06T05:23:37;21.45;77.41
71304;DHT22;59091;47.446;19.148;2023-08-06T05:26:02;21.27;77.03
71304;DHT22;59091;47.446;19.148;2023-08-06T05:28:28;21.39;77.85
71304;DHT22;59091;47.446;19.148;2023-08-06T05:30:53;21.46;78.15
71304;DHT22;59091;47.446;19.148;2023-08-06T05:33:19;21.45;77.69
71304;DHT22;59091;47.446;19.148;2023-08-06T05:35:44;21.42;77.63
71304;DHT22;59091;47.446;19.148;2023-08-06T05:38:10;21.35;77.62
71304;DHT22;59091;47.446;19.148;2023-08-06T05:40:35;21.55;77.81
71304;DHT22;59091;47.446;19.148;2023-08-06T05:43:01;21.53;76.43
71304;DHT22;59091;47.446;19.148;2023-08-06T05:45:26;21.55;76.46
71304;DHT22;59091;47.446;19.148;2023-08-06T05:47:52;21.72;76.90
71304;DHT22;59091;47.446;19.148;2023-08-06T05:50:19;21.82;76.12
71304;DHT22;59091;47.446;19.148;2023-08-06T05:52:45;21.86;76.30
71304;DHT22;59091;47.446;19.148;2023-08-06T05:55:10;21.78;75.57
71304;DHT22;59091;47.446;19.148;2023-08-06T05:57:35;21.69;75.47
71304;DHT22;59091;47.446;19.148;2023-08-06T06:00:03;21.70;75.89
71304;DHT22;59091;47.446;19.148;2023-08-06T06:02:31;21.51;76.05
71304;DHT22;59091;47.446;19.148;2023-08-06T06:04:56;21.49;75.63
71304;DHT22;59091;47.446;19.148;2023-08-06T06:07:22;21.18;74.55
71304;DHT22;59091;47.446;19.148;2023-08-06T06:09:47;21.32;75.29
71304;DHT22;59091;47.446;19.148;2023-08-06T06:12:12;21.39;75.99
71304;DHT22;59091;47.446;19.148;2023-08-06T06:14:38;21.30;74.80
71304;DHT22;59091;47.446;19.148;2023-08-06T06:17:03;21.39;75.51
71304;DHT22;59091;47.446;19.148;2023-08-06T06:19:29;21.46;75.13
71304;DHT22;59091;47.446;19.148;2023-08-06T06:21:54;21.48;73.80
71304;DHT22;59091;47.446;19.148;2023-08-06T06:24:22;21.55;74.59
71304;DHT22;59091;47.446;19.148;2023-08-06T06:26:48;21.65;74.16
71304;DHT22;59091;47.446;19.148;2023-08-06T06:29:13;21.65;74.04
71304;DHT22;59091;47.446;19.148;2023-08-06T06:31:39;21.70;73.94
71304;DHT22;59091;47.446;19.148;2023-08-06T06:34:04;21.78;74.45
71304;DHT22;59091;47.446;19.148;2023-08-06T06:36:30;21.93;73.47
71304;DHT22;59091;47.446;19.148;2023-08-06T06:38:55;22.09;72.64
71304;DHT22;59091;47.446;19.148;2023-08-06T06:41:20;22.20;72.44
71304;DHT22;59091;47.446;19.148;2023-08-06T06:43:46;22.41;71.47
71304;DHT22;59091;47.446;19.148;2023-08-06T06:46:11;22.60;70.49
71304;DHT22;59091;47.446;19.148;2023-08-06T06:48:37;22.34;68.35
71304;DHT22;59091;47.446;19.148;2023-08-06T06:51:02;22.23;71.40
71304;DHT22;59091;47.446;19.148;2023-08-06T06:53:28;21.97;71.33
71304;DHT22;59091;47.446;19.148;2023-08-06T06:56:04;22.10;72.03
71304;DHT22;59091;47.446;19.148;2023-08-06T06:58:30;22.04;70.41
71304;DHT22;59091;47.446;19.148;2023-08-06T07:00:55;22.24;71.32
71304;DHT22;59091;47.446;19.148;2023-08-06T07:03:21;22.52;70.86
71304;DHT22;59091;47.446;19.148;2023-08-06T07:05:46;22.55;68.97
71304;DHT22;59091;47.446;19.148;2023-08-06T07:08:12;22.69;69.77
71304;DHT22;59091;47.446;19.148;2023-08-06T07:10:40;22.62;68.74
71304;DHT22;59091;47.446;19.148;2023-08-06T07:13:06;22.78;69.50
71304;DHT22;59091;47.446;19.148;2023-08-06T07:15:32;22.81;69.01
71304;DHT22;59091;47.446;19.148;2023-08-06T07:17:57;22.94;68.55
71304;DHT22;59091;47.446;19.148;2023-08-06T07:20:22;22.95;68.58
71304;DHT22;59091;47.446;19.148;2023-08-06T07:22:48;23.01;68.63
71304;DHT22;59091;47.446;19.148;2023-08-06T07:25:15;23.02;68.54
71304;DHT22;59091;47.446;19.148;2023-08-06T07:27:41;23.08;68.31
71304;DHT22;59091;47.446;19.148;2023-08-06T07:30:07;22.96;67.16
71304;DHT22;59091;47.446;19.148;2023-08-06T07:32:32;22.92;68.56
71304;DHT22;59091;47.446;19.148;2023-08-06T07:34:58;22.91;68.48
71304;DHT22;59091;47.446;19.148;2023-08-06T07:37:28;22.94;68.54
71304;DHT22;59091;47.446;19.148;2023-08-06T07:39:54;22.88;68.78
71304;DHT22;59091;47.446;19.148;2023-08-06T07:42:20;22.58;67.39
71304;DHT22;59091;47.446;19.148;2023-08-06T07:44:53;22.27;68.26
71304;DHT22;59091;47.446;19.148;2023-08-06T07:47:19;22.44;68.87
71304;DHT22;59091;47.446;19.148;2023-08-06T07:49:45;22.36;67.53
71304;DHT22;59091;47.446;19.148;2023-08-06T07:52:10;22.47;68.06
71304;DHT22;59091;47.446;19.148;2023-08-06T07:54:36;22.60;67.90
71304;DHT22;59091;47.446;19.148;2023-08-06T07:57:02;22.47;67.60
71304;DHT22;59091;47.446;19.148;2023-08-06T07:59:27;22.62;68.76
71304;DHT22;59091;47.446;19.148;2023-08-06T08:01:52;22.81;68.63
71304;DHT22;59091;47.446;19.148;2023-08-06T08:04:18;22.68;68.20
71304;DHT22;59091;47.446;19.148;2023-08-06T08:06:43;22.44;68.60
71304;DHT22;59091;47.446;19.148;2023-08-06T08:09:09;22.43;66.84
71304;DHT22;59091;47.446;19.148;2023-08-06T08:11:34;22.31;68.37
71304;DHT22;59091;47.446;19.148;2023-08-06T08:14:00;22.54;68.76
71304;DHT22;59091;47.446;19.148;2023-08-06T08:16:25;22.71;68.13
71304;DHT22;59091;47.446;19.148;2023-08-06T08:18:51;22.91;67.77
71304;DHT22;59091;47.446;19.148;2023-08-06T08:21:16;23.03;67.28
71304;DHT22;59091;47.446;19.148;2023-08-06T08:23:41;22.91;66.82
71304;DHT22;59091;47.446;19.148;2023-08-06T08:26:09;22.92;67.46
71304;DHT22;59091;47.446;19.148;2023-08-06T08:28:34;22.99;67.17
71304;DHT22;59091;47.446;19.148;2023-08-06T08:30:59;23.09;66.73
71304;DHT22;59091;47.446;19.148;2023-08-06T08:33:25;23.12;66.57
71304;DHT22;59091;47.446;19.148;2023-08-06T08:35:50;23.09;66.54
71304;DHT22;59091;47.446;19.148;2023-08-06T08:38:16;23.16;66.20
71304;DHT22;59091;47.446;19.148;2023-08-06T08:40:46;23.12;66.43
71304;DHT22;59091;47.446;19.148;2023-08-06T08:43:15;22.75;65.22
71304;DHT22;59091;47.446;19.148;2023-08-06T08:45:42;22.69;67.18
71304;DHT22;59091;47.446;19.148;2023-08-06T08:48:09;22.34;64.89
71304;DHT22;59091;47.446;19.148;2023-08-06T08:50:36;22.62;67.34
71304;DHT22;59091;47.446;19.148;2023-08-06T08:53:02;22.60;65.63
71304;DHT22;59091;47.446;19.148;2023-08-06T08:55:28;22.74;66.57
71304;DHT22;59091;47.446;19.148;2023-08-06T08:57:53;22.61;64.64
71304;DHT22;59091;47.446;19.148;2023-08-06T09:00:19;22.44;65.46
71304;DHT22;59091;47.446;19.148;2023-08-06T09:02:45;22.34;64.67
71304;DHT22;59091;47.446;19.148;2023-08-06T09:05:12;22.36;64.68
71304;DHT22;59091;47.446;19.148;2023-08-06T09:07:42;22.03;64.85
71304;DHT22;59091;47.446;19.148;2023-08-06T09:10:10;21.92;65.03
71304;DHT22;59091;47.446;19.148;2023-08-06T09:12:36;21.30;67.11
71304;DHT22;59091;47.446;19.148;2023-08-06T09:15:01;21.37;68.59
71304;DHT22;59091;47.446;19.148;2023-08-06T09:17:28;21.30;68.00
71304;DHT22;59091;47.446;19.148;2023-08-06T09:19:54;21.35;67.48
71304;DHT22;59091;47.446;19.148;2023-08-06T09:22:20;21.22;67.60
71304;DHT22;59091;47.446;19.148;2023-08-06T09:24:46;21.20;69.62
71304;DHT22;59091;47.446;19.148;2023-08-06T09:27:12;21.58;68.65
71304;DHT22;59091;47.446;19.148;2023-08-06T09:29:45;21.46;67.87
71304;DHT22;59091;47.446;19.148;2023-08-06T09:32:12;21.65;68.23
71304;DHT22;59091;47.446;19.148;2023-08-06T09:34:42;21.53;68.44
71304;DHT22;59091;47.446;19.148;2023-08-06T09:37:10;21.86;68.83
71304;DHT22;59091;47.446;19.148;2023-08-06T09:39:37;21.93;68.42
71304;DHT22;59091;47.446;19.148;2023-08-06T09:42:03;22.00;68.50
71304;DHT22;59091;47.446;19.148;2023-08-06T09:44:31;21.83;68.29
71304;DHT22;59091;47.446;19.148;2023-08-06T09:46:59;21.92;67.62
71304;DHT22;59091;47.446;19.148;2023-08-06T09:52:02;21.89;67.31
71304;DHT22;59091;47.446;19.148;2023-08-06T09:54:27;21.85;66.23
71304;DHT22;59091;47.446;19.148;2023-08-06T09:56:55;21.83;66.62
71304;DHT22;59091;47.446;19.148;2023-08-06T09:59:22;22.06;67.59
71304;DHT22;59091;47.446;19.148;2023-08-06T10:01:48;21.92;66.54
71304;DHT22;59091;47.446;19.148;2023-08-06T10:04:15;21.63;66.59
71304;DHT22;59091;47.446;19.148;2023-08-06T10:06:47;21.52;66.56
71304;DHT22;59091;47.446;19.148;2023-08-06T10:09:15;21.51;67.51
71304;DHT22;59091;47.446;19.148;2023-08-06T10:11:42;21.62;66.90
71304;DHT22;59091;47.446;19.148;2023-08-06T10:14:30;21.75;68.91
71304;DHT22;59091;47.446;19.148;2023-08-06T10:16:58;21.79;66.81
71304;DHT22;59091;47.446;19.148;2023-08-06T10:19:25;21.46;65.82
71304;DHT22;59091;47.446;19.148;2023-08-06T10:24:53;21.12;67.05
71304;DHT22;59091;47.446;19.148;2023-08-06T10:27:35;20.67;67.01
71304;DHT22;59091;47.446;19.148;2023-08-06T10:30:30;20.56;67.52
71304;DHT22;59091;47.446;19.148;2023-08-06T10:33:01;20.66;67.45
71304;DHT22;59091;47.446;19.148;2023-08-06T10:35:40;20.54;68.16
71304;DHT22;59091;47.446;19.148;2023-08-06T10:38:15;20.49;67.67
71304;DHT22;59091;47.446;19.148;2023-08-06T10:43:29;20.37;68.56
71304;DHT22;59091;47.446;19.148;2023-08-06T10:45:56;20.41;68.32
71304;DHT22;59091;47.446;19.148;2023-08-06T10:51:00;20.40;67.97
71304;DHT22;59091;47.446;19.148;2023-08-06T10:53:25;20.44;67.86
71304;DHT22;59091;47.446;19.148;2023-08-06T10:55:51;20.44;67.39
71304;DHT22;59091;47.446;19.148;2023-08-06T10:58:16;20.28;67.17
71304;DHT22;59091;47.446;19.148;2023-08-06T11:00:42;20.08;67.91
71304;DHT22;59091;47.446;19.148;2023-08-06T11:03:08;20.26;68.11
71304;DHT22;59091;47.446;19.148;2023-08-06T11:05:34;20.47;67.91
71304;DHT22;59091;47.446;19.148;2023-08-06T11:08:00;20.30;67.31
71304;DHT22;59091;47.446;19.148;2023-08-06T11:10:26;20.33;67.26
71304;DHT22;59091;47.446;19.148;2023-08-06T11:12:51;20.71;67.71
71304;DHT22;59091;47.446;19.148;2023-08-06T11:15:17;20.69;66.51
71304;DHT22;59091;47.446;19.148;2023-08-06T11:17:42;20.67;66.41
71304;DHT22;59091;47.446;19.148;2023-08-06T11:20:08;20.76;66.58
71304;DHT22;59091;47.446;19.148;2023-08-06T11:22:36;20.74;66.07
71304;DHT22;59091;47.446;19.148;2023-08-06T11:25:01;20.60;66.78
71304;DHT22;59091;47.446;19.148;2023-08-06T11:27:27;20.50;66.86
71304;DHT22;59091;47.446;19.148;2023-08-06T11:29:54;20.50;67.75
71304;DHT22;59091;47.446;19.148;2023-08-06T11:32:19;20.74;66.44
71304;DHT22;59091;47.446;19.148;2023-08-06T11:34:45;21.07;66.30
71304;DHT22;59091;47.446;19.148;2023-08-06T11:37:11;21.08;64.92
71304;DHT22;59091;47.446;19.148;2023-08-06T11:39:37;21.10;64.97
71304;DHT22;59091;47.446;19.148;2023-08-06T11:42:04;21.07;64.97
71304;DHT22;59091;47.446;19.148;2023-08-06T11:44:31;21.28;65.37
71304;DHT22;59091;47.446;19.148;2023-08-06T11:46:58;21.02;65.28
71304;DHT22;59091;47.446;19.148;2023-08-06T11:49:45;20.87;65.62
71304;DHT22;59091;47.446;19.148;2023-08-06T11:52:24;20.61;66.39
71304;DHT22;59091;47.446;19.148;2023-08-06T11:57:26;20.39;67.51
71304;DHT22;59091;47.446;19.148;2023-08-06T11:59:53;20.46;67.95
71304;DHT22;59091;47.446;19.148;2023-08-06T12:02:21;20.39;67.67
71304;DHT22;59091;47.446;19.148;2023-08-06T12:04:59;20.40;67.77
71304;DHT22;59091;47.446;19.148;2023-08-06T12:07:32;20.34;66.91
71304;DHT22;59091;47.446;19.148;2023-08-06T12:09:58;20.37;67.56
71304;DHT22;59091;47.446;19.148;2023-08-06T12:12:24;20.53;66.96
71304;DHT22;59091;47.446;19.148;2023-08-06T12:14:50;20.81;66.06
71304;DHT22;59091;47.446;19.148;2023-08-06T12:17:15;20.85;65.52
71304;DHT22;59091;47.446;19.148;2023-08-06T12:19:41;21.20;65.97
71304;DHT22;59091;47.446;19.148;2023-08-06T12:22:06;21.11;64.76
71304;DHT22;59091;47.446;19.148;2023-08-06T12:24:32;20.77;64.93
71304;DHT22;59091;47.446;19.148;2023-08-06T12:26:58;20.69;64.76
71304;DHT22;59091;47.446;19.148;2023-08-06T12:29:25;20.25;65.21
71304;DHT22;59091;47.446;19.148;2023-08-06T12:31:51;20.36;65.27
71304;DHT22;59091;47.446;19.148;2023-08-06T12:34:16;20.43;65.33
71304;DHT22;59091;47.446;19.148;2023-08-06T12:36:42;20.49;65.58
71304;DHT22;59091;47.446;19.148;2023-08-06T12:39:07;20.60;65.68
71304;DHT22;59091;47.446;19.148;2023-08-06T12:41:33;20.70;65.85
71304;DHT22;59091;47.446;19.148;2023-08-06T12:43:58;20.26;66.06
71304;DHT22;59091;47.446;19.148;2023-08-06T12:46:24;20.46;66.22
71304;DHT22;59091;47.446;19.148;2023-08-06T12:48:49;20.60;65.85
71304;DHT22;59091;47.446;19.148;2023-08-06T12:51:14;20.60;65.65
71304;DHT22;59091;47.446;19.148;2023-08-06T12:53:40;20.61;65.41
71304;DHT22;59091;47.446;19.148;2023-08-06T12:56:05;20.80;64.64
71304;DHT22;59091;47.446;19.148;2023-08-06T12:58:31;20.92;64.16
71304;DHT22;59091;47.446;19.148;2023-08-06T13:00:56;21.08;65.29
71304;DHT22;59091;47.446;19.148;2023-08-06T13:03:22;21.18;64.40
71304;DHT22;59091;47.446;19.148;2023-08-06T13:05:47;21.12;63.61
71304;DHT22;59091;47.446;19.148;2023-08-06T13:08:12;21.22;62.79
71304;DHT22;59091;47.446;19.148;2023-08-06T13:10:38;21.07;63.43
71304;DHT22;59091;47.446;19.148;2023-08-06T13:13:03;20.94;63.86
71304;DHT22;59091;47.446;19.148;2023-08-06T13:15:29;20.91;65.27
71304;DHT22;59091;47.446;19.148;2023-08-06T13:17:54;20.98;65.01
71304;DHT22;59091;47.446;19.148;2023-08-06T13:20:20;20.81;65.83
71304;DHT22;59091;47.446;19.148;2023-08-06T13:22:46;20.98;65.63
71304;DHT22;59091;47.446;19.148;2023-08-06T13:25:12;20.94;65.07
71304;DHT22;59091;47.446;19.148;2023-08-06T13:27:40;20.60;65.06
71304;DHT22;59091;47.446;19.148;2023-08-06T13:30:06;20.77;65.71
71304;DHT22;59091;47.446;19.148;2023-08-06T13:32:32;20.70;66.11
71304;DHT22;59091;47.446;19.148;2023-08-06T13:34:59;20.91;68.06
71304;DHT22;59091;47.446;19.148;2023-08-06T13:37:24;20.85;65.41
71304;DHT22;59091;47.446;19.148;2023-08-06T13:39:50;20.84;65.15
71304;DHT22;59091;47.446;19.148;2023-08-06T13:42:15;20.53;66.32
71304;DHT22;59091;47.446;19.148;2023-08-06T13:44:40;20.57;66.48
71304;DHT22;59091;47.446;19.148;2023-08-06T13:47:06;20.47;67.48
71304;DHT22;59091;47.446;19.148;2023-08-06T13:49:31;20.29;68.19
71304;DHT22;59091;47.446;19.148;2023-08-06T13:51:57;20.22;68.40
71304;DHT22;59091;47.446;19.148;2023-08-06T13:54:22;20.12;69.39
71304;DHT22;59091;47.446;19.148;2023-08-06T13:56:48;20.13;69.44
71304;DHT22;59091;47.446;19.148;2023-08-06T13:59:14;20.05;69.53
71304;DHT22;59091;47.446;19.148;2023-08-06T14:01:41;19.96;69.83
71304;DHT22;59091;47.446;19.148;2023-08-06T14:04:07;19.98;69.95
71304;DHT22;59091;47.446;19.148;2023-08-06T14:06:32;20.06;71.10
71304;DHT22;59091;47.446;19.148;2023-08-06T14:08:58;19.98;71.41
71304;DHT22;59091;47.446;19.148;2023-08-06T14:11:23;20.12;70.98
71304;DHT22;59091;47.446;19.148;2023-08-06T14:13:48;19.89;71.31
71304;DHT22;59091;47.446;19.148;2023-08-06T14:16:14;19.95;71.27
71304;DHT22;59091;47.446;19.148;2023-08-06T14:18:39;19.89;70.37
71304;DHT22;59091;47.446;19.148;2023-08-06T14:21:06;20.13;69.93
71304;DHT22;59091;47.446;19.148;2023-08-06T14:23:32;20.16;69.19
71304;DHT22;59091;47.446;19.148;2023-08-06T14:25:57;20.26;68.88
71304;DHT22;59091;47.446;19.148;2023-08-06T14:28:22;20.34;68.87
71304;DHT22;59091;47.446;19.148;2023-08-06T14:30:48;20.41;68.83
71304;DHT22;59091;47.446;19.148;2023-08-06T14:33:13;20.44;68.61
71304;DHT22;59091;47.446;19.148;2023-08-06T14:35:39;20.67;69.62
71304;DHT22;59091;47.446;19.148;2023-08-06T14:38:04;20.49;67.77
71304;DHT22;59091;47.446;19.148;2023-08-06T14:40:30;20.28;68.26
71304;DHT22;59091;47.446;19.148;2023-08-06T14:43:00;20.46;67.50
71304;DHT22;59091;47.446;19.148;2023-08-06T14:45:26;20.34;66.64
71304;DHT22;59091;47.446;19.148;2023-08-06T14:47:52;20.43;66.20
71304;DHT22;59091;47.446;19.148;2023-08-06T14:50:17;20.49;65.73
71304;DHT22;59091;47.446;19.148;2023-08-06T14:52:42;20.51;66.44
71304;DHT22;59091;47.446;19.148;2023-08-06T14:55:08;20.54;66.58
71304;DHT22;59091;47.446;19.148;2023-08-06T14:57:34;20.57;66.47
71304;DHT22;59091;47.446;19.148;2023-08-06T14:59:59;20.36;65.73
71304;DHT22;59091;47.446;19.148;2023-08-06T15:02:25;20.40;65.87
71304;DHT22;59091;47.446;19.148;2023-08-06T15:04:51;20.46;66.52
71304;DHT22;59091;47.446;19.148;2023-08-06T15:07:16;20.40;65.55
71304;DHT22;59091;47.446;19.148;2023-08-06T15:09:42;20.59;65.89
71304;DHT22;59091;47.446;19.148;2023-08-06T15:12:08;20.47;65.06
71304;DHT22;59091;47.446;19.148;2023-08-06T15:14:36;20.47;64.99
71304;DHT22;59091;47.446;19.148;2023-08-06T15:17:04;20.43;64.76
71304;DHT22;59091;47.446;19.148;2023-08-06T15:19:29;20.56;64.90
71304;DHT22;59091;47.446;19.148;2023-08-06T15:21:55;20.50;65.51
71304;DHT22;59091;47.446;19.148;2023-08-06T15:24:20;20.32;65.56
71304;DHT22;59091;47.446;19.148;2023-08-06T15:26:46;20.37;65.33
71304;DHT22;59091;47.446;19.148;2023-08-06T15:29:12;20.36;65.92
71304;DHT22;59091;47.446;19.148;2023-08-06T15:31:38;20.32;64.79